createdAt,value
2022-11-16T00:16:13.905Z,40
2022-11-16T00:45:20.651Z,40
2022-11-16T01:14:44.763Z,12
2022-11-16T01:44:03.577Z,26
2022-11-16T02:13:27.690Z,41
2022-11-16T02:42:45.017Z,29
2022-11-16T03:12:07.746Z,28
2022-11-16T03:41:32.131Z,22
2022-11-16T04:10:55.665Z,15
2022-11-16T04:40:05.815Z,15
2022-11-16T05:09:31.625Z,14
2022-11-16T05:38:56.580Z,14
2022-11-16T06:08:06.836Z,12
2022-11-16T06:37:30.969Z,8
2022-11-16T07:06:34.316Z,7
2022-11-16T07:35:36.050Z,9
2022-11-16T08:04:47.911Z,6
2022-11-16T08:34:02.061Z,7
2022-11-16T09:03:14.033Z,7
2022-11-16T09:32:18.972Z,6
2022-11-16T10:01:33.371Z,5
2022-11-16T10:30:39.365Z,6
2022-11-16T10:59:50.965Z,3
2022-11-16T11:29:01.930Z,3
2022-11-16T11:58:17.663Z,3
2022-11-16T12:27:27.898Z,4
2022-11-16T12:56:35.305Z,4
2022-11-16T13:25:57.336Z,5
2022-11-16T13:55:16.354Z,4
2022-11-16T14:24:29.235Z,6
2022-11-16T14:53:34.416Z,9
2022-11-16T15:22:30.223Z,6
2022-11-16T15:51:47.567Z,7
2022-11-16T16:21:01.877Z,7
2022-11-16T16:50:18.927Z,7
2022-11-16T17:19:30.919Z,9
2022-11-16T17:48:43.841Z,7
2022-11-16T18:17:47.184Z,9
2022-11-16T18:47:06.338Z,11
2022-11-16T19:16:23.690Z,9
2022-11-16T19:45:26.868Z,7
2022-11-16T20:14:36.028Z,7
2022-11-16T20:43:37.741Z,9
2022-11-16T21:12:42.947Z,8
2022-11-16T21:41:39.320Z,7
2022-11-16T22:10:33.484Z,7
2022-11-16T22:39:42.759Z,7
2022-11-16T23:08:41.591Z,7
2022-11-16T23:37:58.062Z,7
